DIRECCIÓN GENERAL DE AERONÁUTICA CIVIL
DIRECCIÓN METEOROLÓGICA DE CHILE
INFORMACIÓN METAR Y TAF

FIR SANTIAGO

Estación: SCSE
METAR SCSE 181100Z 09002KT 9999 BKN025 10/08 Q1020=

TAF SCSE 181039Z 1812/1912 12005KT 9999 FEW012 BKN030 TX17/1819Z TN08 /1910Z TEMPO 1812/1814 VRB02KT 5000 HZ BKN012 BECMG 1816/1818 27013KT CAVOK BECMG 1901/1903 14005KT BECMG 1908/1910 BKN018=

Estación: SCER
METAR SCER 161100Z 00000KT 7000 OVC014 12/10 Q1015=

TAF SCER NIL=

Estación: SCRD
METAR SCRD 172300Z 15003KT 9999 OVC020 12/09 Q1018=

TAF SCRD 181043Z 1812/1824 VRB02KT 9999 FEW010 BKN025 TX18/1819Z TN10 /1812Z BECMG 1816/1818 19013KT CAVOK=

Estación: SCVM
METAR SCVM 181100Z 00000KT 9999 OVC053 10/09 Q1018=

TAF SCVM 181040Z 1812/1912 VRB02KT 8000 FEW012 SCT040 TX18/1819Z TN08 /1910Z TEMPO 1812/1814 27004KT 5000 HZ BKN012 BECMG 1816/1818 18015KT CAVOK BECMG 1901/1903 14005KT BECMG 1908/1910 8000 NSC=

Estación: SCTB
METAR SCTB 181100Z 34003KT 2000 HZ OVC020 10/07 Q1020=

TAF SCTB 181044Z 1812/1824 VRB02KT 4000 HZ BKN015 TX18/1819Z TN09/ 1812Z TEMPO 1812/1814 1000 BR OVC005 BECMG 1816/1818 21008KT 8000 NSC =

Estación: SCEL
METAR SCEL 181100Z VRB02KT 5000 2000N BR SKC 08/06 Q1019 NOSIG=

TAF SCEL 181041Z 1812/1912 15004KT 7000 BKN025 TX18/1819Z TN07/1910Z TEMPO 1812/1814 VRB02KT 5000 HZ NSC BECMG 1816/1818 18014KT CAVOK BECMG 1901/1903 15004KT BECMG 1908/1910 5000 HZ NSC=

Estación: SCSN
METAR SCSN 181100Z 00000KT 5000 BR OVC037 09/09 Q1020=

TAF SCSN 181042Z 1812/1824 VRB02KT 9999 BKN040 TX17/1819Z TN10/1812Z BECMG 1816/1818 21013KT CAVOK=

Estación: SCRG
METAR SCRG 172000Z 17006KT 4000 HZ OVC030 12/10 Q1018=

TAF AMD SCRG 171211Z 1713/1724 16010KT 0200 FG OVC002 TX14/1719Z TN10 /1713Z BECMG 1714/1716 2000 BR OVC010 BECMG 1716/1718 17010KT 7000 SCT010 BKN015 BECMG 1720/1722 9999 SCT020=

Estación: SCIC
SPECI SCIC 181129Z AUTO 18004KT 140V200 9999 BKN010 OVC029 11/10 Q1020=

TAF SCIC 181045Z 1812/1824 20004KT 8000 BKN012 OVC025 TX17/1819Z TN10 /1812Z TEMPO 1812/1814 VRB02KT 4000 BR BKN004 OVC010 BECMG 1816/1818 18015KT SCT030 BKN050 BECMG 1820/1822 CAVOK=

Estación: SCCH
METAR SCCH 172300Z 00000KT CAVOK 14/10 Q1019=

TAF SCCH 181045Z 1812/1824 VRB02KT 0400 FG VV001 TX17/1819Z TN08/ 1812Z BECMG 1814/1816 21008KT 5000 HZ SCT004 BKN030 BECMG 1818/1820 18013KT CAVOK=

Estación: SCIE
METAR SCIE 181100Z 20002KT 9999 OVC007 09/08 Q1021=

TAF SCIE 181041Z 1812/1912 18004KT 8000 BKN010 TX14/1819Z TN08/1910Z TEMPO 1812/1814 VRB02KT 3000 BR BKN004 BECMG 1816/1818 23012KT 9999 SCT025 BECMG 1906/1908 01012KT 8000 -SHRA BKN015 OVC030=

Estación: SCGE
METAR SCGE 172100Z 05004KT CAVOK 19/06 Q1017=

TAF SCGE 181046Z 1812/1824 18005KT 9999 BKN025 TX18/1819Z TN08/0812Z TEMPO 1812/1814 0400 FG BKN004 BECMG 1816/1818 20013KT SCT035 BECMG 1818/1820 CAVOK=


Volver